sensor_id;sensor_type;location;lat;lon;timestamp;P1;durP1;ratioP1;P2;durP2;ratioP2
21258;SDS011;10787;53.364;-1.480;2023-02-02T00:00:47;17.83;;;4.50;;
21258;SDS011;10787;53.364;-1.480;2023-02-02T00:03:13;13.43;;;4.30;;
21258;SDS011;10787;53.364;-1.480;2023-02-02T00:05:46;18.20;;;4.23;;
21258;SDS011;10787;53.364;-1.480;2023-02-02T00:08:14;15.93;;;4.43;;
21258;SDS011;10787;53.364;-1.480;2023-02-02T00:10:44;15.00;;;4.80;;
21258;SDS011;10787;53.364;-1.480;2023-02-02T00:13:11;16.30;;;3.87;;
21258;SDS011;10787;53.364;-1.480;2023-02-02T00:15:38;17.30;;;4.43;;
21258;SDS011;10787;53.364;-1.480;2023-02-02T00:18:04;15.33;;;4.03;;
21258;SDS011;10787;53.364;-1.480;2023-02-02T00:20:31;16.80;;;4.10;;
21258;SDS011;10787;53.364;-1.480;2023-02-02T00:22:59;18.13;;;4.27;;
21258;SDS011;10787;53.364;-1.480;2023-02-02T00:25:25;15.07;;;4.00;;
21258;SDS011;10787;53.364;-1.480;2023-02-02T00:27:51;16.87;;;4.00;;
21258;SDS011;10787;53.364;-1.480;2023-02-02T00:30:17;15.63;;;3.83;;
21258;SDS011;10787;53.364;-1.480;2023-02-02T00:32:42;15.07;;;4.43;;
21258;SDS011;10787;53.364;-1.480;2023-02-02T00:35:08;14.23;;;4.00;;
21258;SDS011;10787;53.364;-1.480;2023-02-02T00:37:34;14.20;;;3.97;;
21258;SDS011;10787;53.364;-1.480;2023-02-02T00:40:00;15.70;;;4.17;;
21258;SDS011;10787;53.364;-1.480;2023-02-02T00:42:26;15.73;;;3.53;;
21258;SDS011;10787;53.364;-1.480;2023-02-02T00:44:52;13.67;;;3.67;;
21258;SDS011;10787;53.364;-1.480;2023-02-02T00:47:36;14.47;;;4.30;;
21258;SDS011;10787;53.364;-1.480;2023-02-02T00:50:02;12.60;;;3.57;;
21258;SDS011;10787;53.364;-1.480;2023-02-02T00:52:28;14.17;;;3.93;;
21258;SDS011;10787;53.364;-1.480;2023-02-02T00:54:54;13.33;;;3.43;;
21258;SDS011;10787;53.364;-1.480;2023-02-02T00:57:20;14.23;;;3.70;;
21258;SDS011;10787;53.364;-1.480;2023-02-02T00:59:45;10.97;;;3.40;;
21258;SDS011;10787;53.364;-1.480;2023-02-02T01:02:11;14.07;;;3.50;;
21258;SDS011;10787;53.364;-1.480;2023-02-02T01:04:37;15.13;;;3.60;;
21258;SDS011;10787;53.364;-1.480;2023-02-02T01:07:03;15.17;;;3.20;;
21258;SDS011;10787;53.364;-1.480;2023-02-02T01:09:29;13.83;;;4.00;;
21258;SDS011;10787;53.364;-1.480;2023-02-02T01:11:55;12.90;;;3.53;;
21258;SDS011;10787;53.364;-1.480;2023-02-02T01:14:21;14.57;;;3.60;;
21258;SDS011;10787;53.364;-1.480;2023-02-02T01:16:47;9.23;;;2.80;;
21258;SDS011;10787;53.364;-1.480;2023-02-02T01:19:13;14.83;;;3.50;;
21258;SDS011;10787;53.364;-1.480;2023-02-02T01:21:39;13.10;;;3.17;;
21258;SDS011;10787;53.364;-1.480;2023-02-02T01:24:06;14.47;;;3.10;;
21258;SDS011;10787;53.364;-1.480;2023-02-02T01:26:32;14.53;;;3.07;;
21258;SDS011;10787;53.364;-1.480;2023-02-02T01:28:58;15.47;;;2.90;;
21258;SDS011;10787;53.364;-1.480;2023-02-02T01:31:24;13.23;;;3.23;;
21258;SDS011;10787;53.364;-1.480;2023-02-02T01:33:49;15.93;;;2.93;;
21258;SDS011;10787;53.364;-1.480;2023-02-02T01:36:16;15.97;;;3.20;;
21258;SDS011;10787;53.364;-1.480;2023-02-02T01:38:44;13.93;;;2.90;;
21258;SDS011;10787;53.364;-1.480;2023-02-02T01:41:12;10.77;;;2.87;;
21258;SDS011;10787;53.364;-1.480;2023-02-02T01:46:06;12.17;;;2.80;;
21258;SDS011;10787;53.364;-1.480;2023-02-02T01:48:42;11.57;;;2.90;;
21258;SDS011;10787;53.364;-1.480;2023-02-02T01:51:13;12.57;;;2.90;;
21258;SDS011;10787;53.364;-1.480;2023-02-02T01:53:43;12.67;;;2.93;;
21258;SDS011;10787;53.364;-1.480;2023-02-02T01:56:11;11.47;;;2.30;;
21258;SDS011;10787;53.364;-1.480;2023-02-02T01:58:39;8.43;;;2.47;;
21258;SDS011;10787;53.364;-1.480;2023-02-02T02:01:06;8.40;;;2.17;;
21258;SDS011;10787;53.364;-1.480;2023-02-02T02:03:33;9.63;;;2.40;;
21258;SDS011;10787;53.364;-1.480;2023-02-02T02:06:05;11.23;;;2.57;;
21258;SDS011;10787;53.364;-1.480;2023-02-02T02:08:38;10.73;;;2.70;;
21258;SDS011;10787;53.364;-1.480;2023-02-02T02:11:16;10.80;;;2.20;;
21258;SDS011;10787;53.364;-1.480;2023-02-02T02:13:43;8.70;;;2.30;;
21258;SDS011;10787;53.364;-1.480;2023-02-02T02:19:10;5.43;;;2.10;;
21258;SDS011;10787;53.364;-1.480;2023-02-02T02:33:19;11.30;;;2.53;;
21258;SDS011;10787;53.364;-1.480;2023-02-02T02:36:03;9.97;;;2.53;;
21258;SDS011;10787;53.364;-1.480;2023-02-02T02:38:58;8.33;;;2.90;;
21258;SDS011;10787;53.364;-1.480;2023-02-02T02:41:36;12.63;;;2.83;;
21258;SDS011;10787;53.364;-1.480;2023-02-02T02:44:08;9.27;;;3.20;;
21258;SDS011;10787;53.364;-1.480;2023-02-02T02:46:36;9.60;;;3.10;;
21258;SDS011;10787;53.364;-1.480;2023-02-02T02:49:03;9.03;;;2.93;;
21258;SDS011;10787;53.364;-1.480;2023-02-02T02:54:03;10.50;;;3.00;;
21258;SDS011;10787;53.364;-1.480;2023-02-02T02:56:52;10.03;;;2.80;;
21258;SDS011;10787;53.364;-1.480;2023-02-02T02:59:32;8.33;;;3.10;;
21258;SDS011;10787;53.364;-1.480;2023-02-02T03:07:25;8.93;;;3.80;;
21258;SDS011;10787;53.364;-1.480;2023-02-02T03:10:12;10.17;;;4.30;;
21258;SDS011;10787;53.364;-1.480;2023-02-02T03:12:45;10.60;;;4.67;;
21258;SDS011;10787;53.364;-1.480;2023-02-02T03:15:12;10.83;;;5.73;;
21258;SDS011;10787;53.364;-1.480;2023-02-02T03:17:39;9.40;;;4.90;;
21258;SDS011;10787;53.364;-1.480;2023-02-02T03:20:07;12.00;;;6.20;;
21258;SDS011;10787;53.364;-1.480;2023-02-02T03:22:33;13.47;;;5.77;;
21258;SDS011;10787;53.364;-1.480;2023-02-02T03:24:59;14.03;;;6.00;;
21258;SDS011;10787;53.364;-1.480;2023-02-02T03:27:25;14.93;;;7.30;;
21258;SDS011;10787;53.364;-1.480;2023-02-02T03:29:51;15.43;;;8.10;;
21258;SDS011;10787;53.364;-1.480;2023-02-02T03:32:17;15.60;;;8.43;;
21258;SDS011;10787;53.364;-1.480;2023-02-02T03:34:43;14.80;;;7.80;;
21258;SDS011;10787;53.364;-1.480;2023-02-02T03:37:09;14.77;;;7.53;;
21258;SDS011;10787;53.364;-1.480;2023-02-02T03:39:34;16.07;;;7.63;;
21258;SDS011;10787;53.364;-1.480;2023-02-02T03:42:00;15.27;;;7.50;;
21258;SDS011;10787;53.364;-1.480;2023-02-02T03:44:26;13.83;;;6.53;;
21258;SDS011;10787;53.364;-1.480;2023-02-02T03:46:52;10.23;;;5.50;;
21258;SDS011;10787;53.364;-1.480;2023-02-02T03:49:18;8.97;;;4.50;;
21258;SDS011;10787;53.364;-1.480;2023-02-02T03:51:44;8.97;;;3.90;;
21258;SDS011;10787;53.364;-1.480;2023-02-02T03:54:10;10.53;;;4.20;;
21258;SDS011;10787;53.364;-1.480;2023-02-02T03:56:36;9.43;;;3.40;;
21258;SDS011;10787;53.364;-1.480;2023-02-02T03:59:01;7.53;;;3.03;;
21258;SDS011;10787;53.364;-1.480;2023-02-02T04:01:28;8.27;;;2.40;;
21258;SDS011;10787;53.364;-1.480;2023-02-02T04:03:55;7.70;;;2.70;;
21258;SDS011;10787;53.364;-1.480;2023-02-02T04:06:22;7.13;;;2.30;;
21258;SDS011;10787;53.364;-1.480;2023-02-02T04:08:48;8.43;;;2.40;;
21258;SDS011;10787;53.364;-1.480;2023-02-02T04:11:15;7.23;;;2.87;;
21258;SDS011;10787;53.364;-1.480;2023-02-02T04:13:41;8.37;;;2.77;;
21258;SDS011;10787;53.364;-1.480;2023-02-02T04:16:07;9.27;;;2.90;;
21258;SDS011;10787;53.364;-1.480;2023-02-02T04:18:34;8.17;;;2.83;;
21258;SDS011;10787;53.364;-1.480;2023-02-02T04:21:03;11.53;;;3.10;;
21258;SDS011;10787;53.364;-1.480;2023-02-02T04:23:30;10.70;;;2.80;;
21258;SDS011;10787;53.364;-1.480;2023-02-02T04:25:56;7.13;;;2.60;;
21258;SDS011;10787;53.364;-1.480;2023-02-02T04:28:23;8.27;;;2.47;;
21258;SDS011;10787;53.364;-1.480;2023-02-02T04:30:50;7.73;;;2.20;;
21258;SDS011;10787;53.364;-1.480;2023-02-02T04:33:17;8.63;;;2.30;;
21258;SDS011;10787;53.364;-1.480;2023-02-02T04:35:43;10.53;;;3.10;;
21258;SDS011;10787;53.364;-1.480;2023-02-02T04:38:09;5.80;;;2.13;;
21258;SDS011;10787;53.364;-1.480;2023-02-02T04:40:38;7.70;;;2.77;;
21258;SDS011;10787;53.364;-1.480;2023-02-02T04:43:05;8.63;;;2.60;;
21258;SDS011;10787;53.364;-1.480;2023-02-02T04:45:30;9.73;;;2.67;;
21258;SDS011;10787;53.364;-1.480;2023-02-02T04:47:56;6.17;;;2.40;;
21258;SDS011;10787;53.364;-1.480;2023-02-02T04:50:22;7.67;;;2.67;;
21258;SDS011;10787;53.364;-1.480;2023-02-02T04:52:47;9.43;;;2.90;;
21258;SDS011;10787;53.364;-1.480;2023-02-02T04:55:13;7.20;;;2.70;;
21258;SDS011;10787;53.364;-1.480;2023-02-02T04:57:39;11.60;;;3.23;;
21258;SDS011;10787;53.364;-1.480;2023-02-02T05:00:05;8.93;;;3.00;;
21258;SDS011;10787;53.364;-1.480;2023-02-02T05:02:35;8.00;;;2.83;;
21258;SDS011;10787;53.364;-1.480;2023-02-02T05:05:01;9.73;;;3.07;;
21258;SDS011;10787;53.364;-1.480;2023-02-02T05:07:27;9.07;;;2.70;;
21258;SDS011;10787;53.364;-1.480;2023-02-02T05:09:52;8.13;;;3.07;;
21258;SDS011;10787;53.364;-1.480;2023-02-02T05:12:18;6.57;;;2.80;;
21258;SDS011;10787;53.364;-1.480;2023-02-02T05:14:44;7.17;;;2.70;;
21258;SDS011;10787;53.364;-1.480;2023-02-02T05:17:09;7.27;;;2.93;;
21258;SDS011;10787;53.364;-1.480;2023-02-02T05:19:35;6.97;;;2.80;;
21258;SDS011;10787;53.364;-1.480;2023-02-02T05:22:01;6.23;;;3.10;;
21258;SDS011;10787;53.364;-1.480;2023-02-02T05:24:27;7.50;;;3.30;;
21258;SDS011;10787;53.364;-1.480;2023-02-02T05:26:52;5.93;;;2.90;;
21258;SDS011;10787;53.364;-1.480;2023-02-02T05:29:22;5.93;;;2.80;;
21258;SDS011;10787;53.364;-1.480;2023-02-02T05:31:49;6.43;;;3.00;;
21258;SDS011;10787;53.364;-1.480;2023-02-02T05:34:14;7.93;;;3.03;;
21258;SDS011;10787;53.364;-1.480;2023-02-02T05:36:40;6.57;;;3.13;;
21258;SDS011;10787;53.364;-1.480;2023-02-02T05:39:06;8.17;;;3.10;;
21258;SDS011;10787;53.364;-1.480;2023-02-02T05:41:33;7.60;;;3.30;;
21258;SDS011;10787;53.364;-1.480;2023-02-02T05:43:59;8.00;;;2.90;;
21258;SDS011;10787;53.364;-1.480;2023-02-02T05:46:24;3.93;;;2.70;;
21258;SDS011;10787;53.364;-1.480;2023-02-02T05:48:50;4.37;;;2.80;;
21258;SDS011;10787;53.364;-1.480;2023-02-02T05:51:26;6.97;;;2.77;;
21258;SDS011;10787;53.364;-1.480;2023-02-02T05:53:55;6.57;;;3.20;;
21258;SDS011;10787;53.364;-1.480;2023-02-02T05:56:20;4.80;;;2.87;;
21258;SDS011;10787;53.364;-1.480;2023-02-02T05:58:46;8.60;;;3.10;;
21258;SDS011;10787;53.364;-1.480;2023-02-02T06:01:14;6.77;;;3.30;;
21258;SDS011;10787;53.364;-1.480;2023-02-02T06:03:42;7.53;;;3.37;;
21258;SDS011;10787;53.364;-1.480;2023-02-02T06:06:07;12.17;;;4.27;;
21258;SDS011;10787;53.364;-1.480;2023-02-02T06:08:34;9.80;;;3.73;;
21258;SDS011;10787;53.364;-1.480;2023-02-02T06:11:07;8.63;;;3.97;;
21258;SDS011;10787;53.364;-1.480;2023-02-02T06:13:36;7.63;;;3.53;;
21258;SDS011;10787;53.364;-1.480;2023-02-02T06:16:02;7.37;;;3.83;;
21258;SDS011;10787;53.364;-1.480;2023-02-02T06:18:28;8.87;;;3.83;;
21258;SDS011;10787;53.364;-1.480;2023-02-02T06:20:57;9.50;;;4.10;;
21258;SDS011;10787;53.364;-1.480;2023-02-02T06:23:24;6.80;;;4.07;;
21258;SDS011;10787;53.364;-1.480;2023-02-02T06:25:50;10.63;;;6.70;;
21258;SDS011;10787;53.364;-1.480;2023-02-02T06:28:16;11.63;;;5.70;;
21258;SDS011;10787;53.364;-1.480;2023-02-02T06:30:42;12.27;;;6.97;;
21258;SDS011;10787;53.364;-1.480;2023-02-02T06:33:08;13.33;;;7.00;;
21258;SDS011;10787;53.364;-1.480;2023-02-02T06:35:34;13.67;;;8.90;;
21258;SDS011;10787;53.364;-1.480;2023-02-02T06:38:00;13.33;;;9.57;;
21258;SDS011;10787;53.364;-1.480;2023-02-02T06:40:26;15.73;;;10.97;;
21258;SDS011;10787;53.364;-1.480;2023-02-02T06:42:55;17.93;;;11.63;;
21258;SDS011;10787;53.364;-1.480;2023-02-02T06:45:22;17.33;;;10.57;;
21258;SDS011;10787;53.364;-1.480;2023-02-02T06:47:48;15.27;;;11.10;;
21258;SDS011;10787;53.364;-1.480;2023-02-02T06:50:14;14.73;;;8.90;;
21258;SDS011;10787;53.364;-1.480;2023-02-02T06:52:45;11.43;;;8.20;;
21258;SDS011;10787;53.364;-1.480;2023-02-02T06:55:12;11.73;;;7.50;;
21258;SDS011;10787;53.364;-1.480;2023-02-02T06:57:38;10.00;;;7.80;;
21258;SDS011;10787;53.364;-1.480;2023-02-02T07:00:04;10.03;;;7.70;;
21258;SDS011;10787;53.364;-1.480;2023-02-02T07:02:30;11.97;;;7.50;;
21258;SDS011;10787;53.364;-1.480;2023-02-02T07:04:56;11.20;;;8.20;;
21258;SDS011;10787;53.364;-1.480;2023-02-02T07:07:22;10.27;;;7.00;;
21258;SDS011;10787;53.364;-1.480;2023-02-02T07:09:47;10.00;;;6.60;;
21258;SDS011;10787;53.364;-1.480;2023-02-02T07:12:13;10.63;;;6.37;;
21258;SDS011;10787;53.364;-1.480;2023-02-02T07:14:39;10.40;;;5.77;;
21258;SDS011;10787;53.364;-1.480;2023-02-02T07:17:05;9.10;;;6.13;;
21258;SDS011;10787;53.364;-1.480;2023-02-02T07:19:30;8.77;;;6.43;;
21258;SDS011;10787;53.364;-1.480;2023-02-02T07:21:56;7.80;;;5.70;;
21258;SDS011;10787;53.364;-1.480;2023-02-02T07:24:22;8.80;;;6.00;;
21258;SDS011;10787;53.364;-1.480;2023-02-02T07:26:47;10.70;;;6.67;;
21258;SDS011;10787;53.364;-1.480;2023-02-02T07:29:13;11.40;;;7.80;;
21258;SDS011;10787;53.364;-1.480;2023-02-02T07:31:39;12.47;;;9.13;;
21258;SDS011;10787;53.364;-1.480;2023-02-02T07:34:05;16.50;;;10.90;;
21258;SDS011;10787;53.364;-1.480;2023-02-02T07:36:31;15.37;;;10.47;;
21258;SDS011;10787;53.364;-1.480;2023-02-02T07:38:57;16.63;;;9.63;;
21258;SDS011;10787;53.364;-1.480;2023-02-02T07:41:23;13.27;;;9.17;;
21258;SDS011;10787;53.364;-1.480;2023-02-02T07:43:49;12.80;;;9.00;;
21258;SDS011;10787;53.364;-1.480;2023-02-02T07:46:16;11.50;;;8.00;;
21258;SDS011;10787;53.364;-1.480;2023-02-02T07:48:42;13.17;;;9.07;;
21258;SDS011;10787;53.364;-1.480;2023-02-02T07:51:10;11.87;;;8.87;;
21258;SDS011;10787;53.364;-1.480;2023-02-02T07:53:37;11.97;;;8.63;;
21258;SDS011;10787;53.364;-1.480;2023-02-02T07:56:07;12.97;;;8.70;;
21258;SDS011;10787;53.364;-1.480;2023-02-02T07:58:37;9.23;;;7.57;;
21258;SDS011;10787;53.364;-1.480;2023-02-02T08:01:04;11.27;;;7.60;;
21258;SDS011;10787;53.364;-1.480;2023-02-02T08:03:32;12.63;;;7.77;;
21258;SDS011;10787;53.364;-1.480;2023-02-02T08:05:59;12.90;;;7.60;;
21258;SDS011;10787;53.364;-1.480;2023-02-02T08:08:25;13.77;;;7.90;;
21258;SDS011;10787;53.364;-1.480;2023-02-02T08:10:52;57.63;;;11.40;;
21258;SDS011;10787;53.364;-1.480;2023-02-02T08:13:19;12.37;;;8.07;;
21258;SDS011;10787;53.364;-1.480;2023-02-02T08:15:45;12.37;;;9.47;;
21258;SDS011;10787;53.364;-1.480;2023-02-02T08:18:11;21.37;;;12.17;;
21258;SDS011;10787;53.364;-1.480;2023-02-02T08:20:37;17.60;;;12.13;;
21258;SDS011;10787;53.364;-1.480;2023-02-02T08:23:02;15.03;;;11.80;;
21258;SDS011;10787;53.364;-1.480;2023-02-02T08:25:28;12.57;;;9.63;;
21258;SDS011;10787;53.364;-1.480;2023-02-02T08:27:54;12.90;;;9.17;;
21258;SDS011;10787;53.364;-1.480;2023-02-02T08:30:25;13.63;;;9.90;;
21258;SDS011;10787;53.364;-1.480;2023-02-02T08:32:51;13.63;;;8.00;;
21258;SDS011;10787;53.364;-1.480;2023-02-02T08:35:17;11.03;;;8.10;;
21258;SDS011;10787;53.364;-1.480;2023-02-02T08:37:46;12.00;;;8.57;;
21258;SDS011;10787;53.364;-1.480;2023-02-02T08:40:15;18.60;;;8.90;;
21258;SDS011;10787;53.364;-1.480;2023-02-02T08:42:40;10.93;;;7.80;;
21258;SDS011;10787;53.364;-1.480;2023-02-02T08:45:07;10.03;;;7.73;;
21258;SDS011;10787;53.364;-1.480;2023-02-02T08:47:33;9.63;;;7.33;;
21258;SDS011;10787;53.364;-1.480;2023-02-02T08:49:59;10.90;;;7.17;;
21258;SDS011;10787;53.364;-1.480;2023-02-02T08:52:25;12.97;;;7.60;;
21258;SDS011;10787;53.364;-1.480;2023-02-02T08:54:50;8.47;;;6.63;;
21258;SDS011;10787;53.364;-1.480;2023-02-02T08:57:16;10.10;;;6.47;;
21258;SDS011;10787;53.364;-1.480;2023-02-02T08:59:42;8.73;;;6.33;;
21258;SDS011;10787;53.364;-1.480;2023-02-02T09:02:09;9.17;;;6.40;;
21258;SDS011;10787;53.364;-1.480;2023-02-02T09:04:37;9.47;;;5.90;;
21258;SDS011;10787;53.364;-1.480;2023-02-02T09:07:04;7.57;;;6.30;;
21258;SDS011;10787;53.364;-1.480;2023-02-02T09:09:31;6.90;;;5.57;;
21258;SDS011;10787;53.364;-1.480;2023-02-02T09:12:12;7.93;;;6.00;;
21258;SDS011;10787;53.364;-1.480;2023-02-02T09:14:37;7.10;;;5.77;;
21258;SDS011;10787;53.364;-1.480;2023-02-02T09:17:06;7.73;;;5.60;;
21258;SDS011;10787;53.364;-1.480;2023-02-02T09:19:32;9.73;;;6.10;;
21258;SDS011;10787;53.364;-1.480;2023-02-02T09:21:57;6.27;;;5.50;;
21258;SDS011;10787;53.364;-1.480;2023-02-02T09:24:23;7.70;;;6.07;;
21258;SDS011;10787;53.364;-1.480;2023-02-02T09:26:54;5.90;;;5.20;;
21258;SDS011;10787;53.364;-1.480;2023-02-02T09:29:20;5.83;;;4.23;;
21258;SDS011;10787;53.364;-1.480;2023-02-02T09:31:46;6.73;;;4.60;;
21258;SDS011;10787;53.364;-1.480;2023-02-02T09:34:15;6.13;;;4.50;;
21258;SDS011;10787;53.364;-1.480;2023-02-02T09:36:43;6.97;;;4.40;;
21258;SDS011;10787;53.364;-1.480;2023-02-02T09:39:15;4.57;;;3.70;;
21258;SDS011;10787;53.364;-1.480;2023-02-02T09:42:02;5.30;;;3.30;;
21258;SDS011;10787;53.364;-1.480;2023-02-02T09:44:58;5.13;;;3.40;;
21258;SDS011;10787;53.364;-1.480;2023-02-02T09:59:06;3.90;;;3.00;;
21258;SDS011;10787;53.364;-1.480;2023-02-02T10:01:42;3.60;;;2.40;;
21258;SDS011;10787;53.364;-1.480;2023-02-02T10:07:47;3.43;;;2.20;;
21258;SDS011;10787;53.364;-1.480;2023-02-02T10:26:02;3.37;;;1.83;;
21258;SDS011;10787;53.364;-1.480;2023-02-02T10:28:34;3.43;;;1.83;;
21258;SDS011;10787;53.364;-1.480;2023-02-02T10:31:37;2.83;;;1.70;;
21258;SDS011;10787;53.364;-1.480;2023-02-02T10:34:28;2.47;;;1.70;;
21258;SDS011;10787;53.364;-1.480;2023-02-02T10:43:13;2.87;;;1.70;;
21258;SDS011;10787;53.364;-1.480;2023-02-02T10:46:03;2.53;;;1.77;;
21258;SDS011;10787;53.364;-1.480;2023-02-02T10:48:35;2.27;;;1.63;;
21258;SDS011;10787;53.364;-1.480;2023-02-02T10:51:28;1.97;;;1.77;;
21258;SDS011;10787;53.364;-1.480;2023-02-02T10:53:55;4.30;;;2.10;;
21258;SDS011;10787;53.364;-1.480;2023-02-02T10:56:34;4.00;;;3.17;;
21258;SDS011;10787;53.364;-1.480;2023-02-02T10:59:09;5.43;;;3.67;;
21258;SDS011;10787;53.364;-1.480;2023-02-02T11:01:40;5.47;;;4.00;;
21258;SDS011;10787;53.364;-1.480;2023-02-02T11:04:08;3.97;;;3.47;;
21258;SDS011;10787;53.364;-1.480;2023-02-02T11:06:53;4.60;;;3.37;;
21258;SDS011;10787;53.364;-1.480;2023-02-02T11:09:25;4.60;;;3.03;;
21258;SDS011;10787;53.364;-1.480;2023-02-02T11:11:59;4.03;;;2.47;;
21258;SDS011;10787;53.364;-1.480;2023-02-02T11:14:36;3.63;;;2.00;;
21258;SDS011;10787;53.364;-1.480;2023-02-02T11:17:10;5.47;;;2.47;;
21258;SDS011;10787;53.364;-1.480;2023-02-02T11:19:43;2.10;;;1.90;;
21258;SDS011;10787;53.364;-1.480;2023-02-02T11:22:22;2.47;;;2.10;;
21258;SDS011;10787;53.364;-1.480;2023-02-02T11:25:44;2.23;;;1.87;;
21258;SDS011;10787;53.364;-1.480;2023-02-02T11:27:56;2.50;;;1.67;;
21258;SDS011;10787;53.364;-1.480;2023-02-02T11:30:32;2.40;;;1.43;;
21258;SDS011;10787;53.364;-1.480;2023-02-02T11:33:07;1.83;;;1.17;;
21258;SDS011;10787;53.364;-1.480;2023-02-02T11:35:58;4.50;;;1.00;;
21258;SDS011;10787;53.364;-1.480;2023-02-02T11:38:29;1.70;;;1.07;;
21258;SDS011;10787;53.364;-1.480;2023-02-02T11:40:57;1.83;;;0.90;;
21258;SDS011;10787;53.364;-1.480;2023-02-02T11:43:46;3.53;;;1.17;;
21258;SDS011;10787;53.364;-1.480;2023-02-02T11:46:19;3.37;;;1.20;;
21258;SDS011;10787;53.364;-1.480;2023-02-02T11:49:04;2.93;;;1.50;;
21258;SDS011;10787;53.364;-1.480;2023-02-02T11:51:37;5.23;;;2.07;;
21258;SDS011;10787;53.364;-1.480;2023-02-02T11:54:13;2.90;;;1.73;;
21258;SDS011;10787;53.364;-1.480;2023-02-02T11:56:48;2.33;;;1.10;;
21258;SDS011;10787;53.364;-1.480;2023-02-02T11:59:36;1.83;;;0.93;;
21258;SDS011;10787;53.364;-1.480;2023-02-02T12:04:51;1.90;;;1.07;;
21258;SDS011;10787;53.364;-1.480;2023-02-02T12:07:31;3.50;;;1.30;;
21258;SDS011;10787;53.364;-1.480;2023-02-02T12:10:05;3.13;;;1.87;;
21258;SDS011;10787;53.364;-1.480;2023-02-02T12:13:08;2.60;;;2.10;;
21258;SDS011;10787;53.364;-1.480;2023-02-02T12:15:59;3.03;;;2.00;;
21258;SDS011;10787;53.364;-1.480;2023-02-02T12:24:31;4.03;;;2.80;;
21258;SDS011;10787;53.364;-1.480;2023-02-02T12:27:21;3.37;;;2.30;;
21258;SDS011;10787;53.364;-1.480;2023-02-02T12:32:46;3.13;;;2.17;;
21258;SDS011;10787;53.364;-1.480;2023-02-02T12:40:30;1.90;;;1.53;;
21258;SDS011;10787;53.364;-1.480;2023-02-02T12:49:03;1.27;;;1.00;;
21258;SDS011;10787;53.364;-1.480;2023-02-02T12:57:01;2.47;;;0.87;;
21258;SDS011;10787;53.364;-1.480;2023-02-02T13:07:40;1.90;;;0.50;;
21258;SDS011;10787;53.364;-1.480;2023-02-02T13:10:11;1.97;;;0.73;;
21258;SDS011;10787;53.364;-1.480;2023-02-02T13:15:20;0.93;;;0.60;;
21258;SDS011;10787;53.364;-1.480;2023-02-02T13:18:10;1.53;;;0.63;;
21258;SDS011;10787;53.364;-1.480;2023-02-02T13:20:54;2.93;;;0.80;;
21258;SDS011;10787;53.364;-1.480;2023-02-02T13:23:26;2.13;;;0.90;;
21258;SDS011;10787;53.364;-1.480;2023-02-02T13:26:15;1.70;;;0.83;;
21258;SDS011;10787;53.364;-1.480;2023-02-02T13:34:57;2.07;;;1.13;;
21258;SDS011;10787;53.364;-1.480;2023-02-02T13:37:12;1.33;;;1.00;;
21258;SDS011;10787;53.364;-1.480;2023-02-02T13:39:55;5.10;;;1.23;;
21258;SDS011;10787;53.364;-1.480;2023-02-02T13:42:42;1.77;;;0.97;;
21258;SDS011;10787;53.364;-1.480;2023-02-02T13:50:36;1.80;;;0.70;;
21258;SDS011;10787;53.364;-1.480;2023-02-02T13:53:36;1.97;;;0.83;;
21258;SDS011;10787;53.364;-1.480;2023-02-02T14:01:48;1.63;;;1.03;;
21258;SDS011;10787;53.364;-1.480;2023-02-02T14:04:23;1.97;;;0.67;;
21258;SDS011;10787;53.364;-1.480;2023-02-02T14:07:04;1.40;;;0.60;;
21258;SDS011;10787;53.364;-1.480;2023-02-02T14:09:34;1.50;;;0.50;;
21258;SDS011;10787;53.364;-1.480;2023-02-02T14:12:05;2.67;;;0.70;;
21258;SDS011;10787;53.364;-1.480;2023-02-02T14:14:36;2.20;;;0.67;;
21258;SDS011;10787;53.364;-1.480;2023-02-02T14:17:47;3.17;;;0.70;;
21258;SDS011;10787;53.364;-1.480;2023-02-02T14:19:58;1.47;;;0.70;;
21258;SDS011;10787;53.364;-1.480;2023-02-02T14:22:43;1.57;;;0.60;;
21258;SDS011;10787;53.364;-1.480;2023-02-02T14:27:55;3.13;;;0.90;;
21258;SDS011;10787;53.364;-1.480;2023-02-02T14:30:24;2.00;;;0.80;;
21258;SDS011;10787;53.364;-1.480;2023-02-02T14:33:17;2.73;;;0.67;;
21258;SDS011;10787;53.364;-1.480;2023-02-02T14:41:21;3.30;;;0.73;;
21258;SDS011;10787;53.364;-1.480;2023-02-02T14:44:27;2.33;;;0.60;;
21258;SDS011;10787;53.364;-1.480;2023-02-02T14:46:55;1.83;;;0.50;;
21258;SDS011;10787;53.364;-1.480;2023-02-02T14:49:24;4.43;;;0.70;;
21258;SDS011;10787;53.364;-1.480;2023-02-02T14:52:15;1.80;;;0.53;;
21258;SDS011;10787;53.364;-1.480;2023-02-02T14:54:46;3.47;;;0.70;;
21258;SDS011;10787;53.364;-1.480;2023-02-02T14:59:50;2.63;;;0.57;;
21258;SDS011;10787;53.364;-1.480;2023-02-02T15:02:22;2.00;;;0.57;;
21258;SDS011;10787;53.364;-1.480;2023-02-02T15:08:06;1.33;;;0.50;;
21258;SDS011;10787;53.364;-1.480;2023-02-02T15:13:18;1.40;;;0.60;;
21258;SDS011;10787;53.364;-1.480;2023-02-02T15:15:47;0.60;;;0.40;;
21258;SDS011;10787;53.364;-1.480;2023-02-02T15:28:50;1.13;;;0.60;;
21258;SDS011;10787;53.364;-1.480;2023-02-02T15:31:32;2.00;;;0.70;;
21258;SDS011;10787;53.364;-1.480;2023-02-02T15:34:24;1.10;;;0.70;;
21258;SDS011;10787;53.364;-1.480;2023-02-02T15:36:54;1.17;;;0.77;;
21258;SDS011;10787;53.364;-1.480;2023-02-02T15:41:57;4.50;;;1.27;;
21258;SDS011;10787;53.364;-1.480;2023-02-02T15:44:46;2.00;;;1.00;;
21258;SDS011;10787;53.364;-1.480;2023-02-02T15:47:13;2.88;;;1.20;;
21258;SDS011;10787;53.364;-1.480;2023-02-02T15:49:42;3.35;;;1.20;;
21258;SDS011;10787;53.364;-1.480;2023-02-02T15:52:13;3.33;;;1.50;;
21258;SDS011;10787;53.364;-1.480;2023-02-02T15:57:25;2.05;;;1.25;;
21258;SDS011;10787;53.364;-1.480;2023-02-02T15:59:56;2.53;;;1.20;;
21258;SDS011;10787;53.364;-1.480;2023-02-02T16:04:58;2.97;;;1.10;;
21258;SDS011;10787;53.364;-1.480;2023-02-02T16:07:27;2.07;;;0.90;;
21258;SDS011;10787;53.364;-1.480;2023-02-02T16:09:55;3.15;;;1.10;;
21258;SDS011;10787;53.364;-1.480;2023-02-02T16:12:26;3.80;;;1.20;;
21258;SDS011;10787;53.364;-1.480;2023-02-02T16:14:52;3.40;;;1.03;;
21258;SDS011;10787;53.364;-1.480;2023-02-02T16:17:27;3.43;;;1.47;;
21258;SDS011;10787;53.364;-1.480;2023-02-02T16:19:59;3.10;;;1.30;;
21258;SDS011;10787;53.364;-1.480;2023-02-02T16:22:28;8.70;;;2.20;;
21258;SDS011;10787;53.364;-1.480;2023-02-02T16:24:55;4.07;;;1.73;;
21258;SDS011;10787;53.364;-1.480;2023-02-02T16:27:25;4.37;;;1.50;;
21258;SDS011;10787;53.364;-1.480;2023-02-02T16:29:59;3.83;;;1.57;;
21258;SDS011;10787;53.364;-1.480;2023-02-02T16:34:57;2.33;;;1.10;;
21258;SDS011;10787;53.364;-1.480;2023-02-02T16:37:27;5.07;;;2.50;;
21258;SDS011;10787;53.364;-1.480;2023-02-02T16:40:41;3.97;;;1.50;;
21258;SDS011;10787;53.364;-1.480;2023-02-02T16:45:51;3.00;;;1.53;;
21258;SDS011;10787;53.364;-1.480;2023-02-02T16:50:50;4.87;;;1.60;;
21258;SDS011;10787;53.364;-1.480;2023-02-02T16:53:35;2.80;;;1.50;;
21258;SDS011;10787;53.364;-1.480;2023-02-02T16:56:04;5.10;;;2.33;;
21258;SDS011;10787;53.364;-1.480;2023-02-02T16:58:31;5.00;;;3.00;;
21258;SDS011;10787;53.364;-1.480;2023-02-02T17:03:33;4.13;;;1.70;;
21258;SDS011;10787;53.364;-1.480;2023-02-02T17:06:00;4.50;;;1.60;;
21258;SDS011;10787;53.364;-1.480;2023-02-02T17:08:32;2.77;;;1.30;;
21258;SDS011;10787;53.364;-1.480;2023-02-02T17:11:02;5.10;;;1.60;;
21258;SDS011;10787;53.364;-1.480;2023-02-02T17:13:42;4.60;;;1.30;;
21258;SDS011;10787;53.364;-1.480;2023-02-02T17:16:11;3.67;;;1.80;;
21258;SDS011;10787;53.364;-1.480;2023-02-02T17:18:40;2.33;;;1.40;;
21258;SDS011;10787;53.364;-1.480;2023-02-02T17:21:06;4.63;;;1.80;;
21258;SDS011;10787;53.364;-1.480;2023-02-02T17:23:37;3.23;;;1.80;;
21258;SDS011;10787;53.364;-1.480;2023-02-02T17:26:07;2.43;;;1.30;;
21258;SDS011;10787;53.364;-1.480;2023-02-02T17:28:33;4.20;;;1.70;;
21258;SDS011;10787;53.364;-1.480;2023-02-02T17:31:01;3.20;;;1.30;;